sensor_id;sensor_type;location;lat;lon;timestamp;P1;P2;P0
50587;PMS7003;70782;50.514;30.816;2023-12-07T00:00:01;48.10;41.60;27.20
50587;PMS7003;70782;50.514;30.816;2023-12-07T00:01:05;47.80;43.90;26.60
50587;PMS7003;70782;50.514;30.816;2023-12-07T00:02:08;45.90;42.70;27.30
50587;PMS7003;70782;50.514;30.816;2023-12-07T00:03:11;44.27;39.55;24.09
50587;PMS7003;70782;50.514;30.816;2023-12-07T00:04:14;47.80;42.50;24.30
50587;PMS7003;70782;50.514;30.816;2023-12-07T00:05:16;44.10;39.00;23.20
50587;PMS7003;70782;50.514;30.816;2023-12-07T00:06:19;49.60;42.40;25.20
50587;PMS7003;70782;50.514;30.816;2023-12-07T00:07:22;41.60;37.90;23.50
50587;PMS7003;70782;50.514;30.816;2023-12-07T00:08:25;39.30;38.50;27.10
50587;PMS7003;70782;50.514;30.816;2023-12-07T00:09:27;48.10;43.80;25.90
50587;PMS7003;70782;50.514;30.816;2023-12-07T00:10:30;48.20;40.50;25.60
50587;PMS7003;70782;50.514;30.816;2023-12-07T00:11:33;48.10;40.70;26.30
50587;PMS7003;70782;50.514;30.816;2023-12-07T00:12:35;45.10;40.00;24.80
50587;PMS7003;70782;50.514;30.816;2023-12-07T00:13:38;46.40;36.80;22.80
50587;PMS7003;70782;50.514;30.816;2023-12-07T00:14:41;43.60;39.20;23.40
50587;PMS7003;70782;50.514;30.816;2023-12-07T00:15:43;50.90;42.60;24.10
50587;PMS7003;70782;50.514;30.816;2023-12-07T00:16:46;42.70;35.70;20.90
50587;PMS7003;70782;50.514;30.816;2023-12-07T00:17:49;39.10;33.10;21.70
50587;PMS7003;70782;50.514;30.816;2023-12-07T00:18:51;36.70;29.80;18.30
50587;PMS7003;70782;50.514;30.816;2023-12-07T00:19:54;41.90;35.90;22.30
50587;PMS7003;70782;50.514;30.816;2023-12-07T00:20:56;37.20;31.40;20.80
50587;PMS7003;70782;50.514;30.816;2023-12-07T00:21:59;36.45;34.09;18.55
50587;PMS7003;70782;50.514;30.816;2023-12-07T00:23:02;22.60;20.30;7.40
50587;PMS7003;70782;50.514;30.816;2023-12-07T00:24:05;39.50;32.80;20.40
50587;PMS7003;70782;50.514;30.816;2023-12-07T00:25:08;45.60;40.40;22.90
50587;PMS7003;70782;50.514;30.816;2023-12-07T00:26:11;43.82;36.00;22.36
50587;PMS7003;70782;50.514;30.816;2023-12-07T00:27:13;39.80;36.80;22.20
50587;PMS7003;70782;50.514;30.816;2023-12-07T00:28:16;42.80;38.80;23.00
50587;PMS7003;70782;50.514;30.816;2023-12-07T00:29:18;46.20;39.00;24.00
50587;PMS7003;70782;50.514;30.816;2023-12-07T00:30:21;41.90;35.90;22.40
50587;PMS7003;70782;50.514;30.816;2023-12-07T00:31:24;44.10;40.00;24.50
50587;PMS7003;70782;50.514;30.816;2023-12-07T00:32:26;47.60;42.10;25.90
50587;PMS7003;70782;50.514;30.816;2023-12-07T00:33:29;46.70;41.40;26.00
50587;PMS7003;70782;50.514;30.816;2023-12-07T00:34:32;48.30;41.10;24.40
50587;PMS7003;70782;50.514;30.816;2023-12-07T00:35:34;42.50;37.20;22.10
50587;PMS7003;70782;50.514;30.816;2023-12-07T00:36:37;44.18;40.36;25.82
50587;PMS7003;70782;50.514;30.816;2023-12-07T00:37:40;51.18;42.91;27.09
50587;PMS7003;70782;50.514;30.816;2023-12-07T00:38:43;45.70;41.20;25.20
50587;PMS7003;70782;50.514;30.816;2023-12-07T00:39:45;45.90;40.80;27.40
50587;PMS7003;70782;50.514;30.816;2023-12-07T00:40:48;50.90;41.70;25.90
50587;PMS7003;70782;50.514;30.816;2023-12-07T00:41:51;48.00;41.80;25.70
50587;PMS7003;70782;50.514;30.816;2023-12-07T00:42:53;43.60;38.60;21.30
50587;PMS7003;70782;50.514;30.816;2023-12-07T00:43:56;44.60;41.20;25.30
50587;PMS7003;70782;50.514;30.816;2023-12-07T00:44:58;55.50;45.20;27.40
50587;PMS7003;70782;50.514;30.816;2023-12-07T00:46:01;47.50;41.50;25.30
50587;PMS7003;70782;50.514;30.816;2023-12-07T00:47:04;44.50;40.30;24.30
50587;PMS7003;70782;50.514;30.816;2023-12-07T00:48:06;42.00;38.40;24.80
50587;PMS7003;70782;50.514;30.816;2023-12-07T00:49:09;47.50;39.50;22.00
50587;PMS7003;70782;50.514;30.816;2023-12-07T00:50:12;38.30;32.40;17.50
50587;PMS7003;70782;50.514;30.816;2023-12-07T00:51:15;40.40;37.70;22.70
50587;PMS7003;70782;50.514;30.816;2023-12-07T00:52:18;38.70;37.30;23.10
50587;PMS7003;70782;50.514;30.816;2023-12-07T00:53:20;43.80;39.50;23.70
50587;PMS7003;70782;50.514;30.816;2023-12-07T00:54:23;45.20;40.50;24.40
50587;PMS7003;70782;50.514;30.816;2023-12-07T00:55:25;39.10;36.70;24.60
50587;PMS7003;70782;50.514;30.816;2023-12-07T00:56:28;43.20;36.90;22.60
50587;PMS7003;70782;50.514;30.816;2023-12-07T00:57:31;42.20;37.10;22.20
50587;PMS7003;70782;50.514;30.816;2023-12-07T00:58:33;37.40;36.00;21.00
50587;PMS7003;70782;50.514;30.816;2023-12-07T00:59:36;39.10;36.30;23.90
50587;PMS7003;70782;50.514;30.816;2023-12-07T01:00:39;44.00;42.40;24.30
50587;PMS7003;70782;50.514;30.816;2023-12-07T01:01:41;33.10;30.50;15.10
50587;PMS7003;70782;50.514;30.816;2023-12-07T01:02:44;43.30;39.10;23.70
50587;PMS7003;70782;50.514;30.816;2023-12-07T01:03:46;45.60;37.70;22.80
50587;PMS7003;70782;50.514;30.816;2023-12-07T01:04:49;39.90;36.50;21.20
50587;PMS7003;70782;50.514;30.816;2023-12-07T01:05:52;42.80;39.80;23.00
50587;PMS7003;70782;50.514;30.816;2023-12-07T01:06:55;41.45;38.91;22.64
50587;PMS7003;70782;50.514;30.816;2023-12-07T01:07:57;36.30;34.00;17.80
50587;PMS7003;70782;50.514;30.816;2023-12-07T01:09:00;34.70;27.50;19.60
50587;PMS7003;70782;50.514;30.816;2023-12-07T01:10:03;37.20;32.80;18.50
50587;PMS7003;70782;50.514;30.816;2023-12-07T01:11:06;38.90;35.20;22.90
50587;PMS7003;70782;50.514;30.816;2023-12-07T01:12:08;36.70;34.60;20.70
50587;PMS7003;70782;50.514;30.816;2023-12-07T01:13:11;36.80;34.30;22.00
50587;PMS7003;70782;50.514;30.816;2023-12-07T01:14:14;40.60;35.20;21.90
50587;PMS7003;70782;50.514;30.816;2023-12-07T01:15:16;42.60;34.20;20.70
50587;PMS7003;70782;50.514;30.816;2023-12-07T01:16:19;36.70;35.30;19.70
50587;PMS7003;70782;50.514;30.816;2023-12-07T01:17:22;42.60;35.80;22.20
50587;PMS7003;70782;50.514;30.816;2023-12-07T01:18:24;39.90;36.70;22.20
50587;PMS7003;70782;50.514;30.816;2023-12-07T01:19:27;40.00;35.00;21.60
50587;PMS7003;70782;50.514;30.816;2023-12-07T01:20:30;38.10;35.00;21.60
50587;PMS7003;70782;50.514;30.816;2023-12-07T01:21:33;36.60;32.50;18.90
50587;PMS7003;70782;50.514;30.816;2023-12-07T01:22:35;40.27;35.55;21.73
50587;PMS7003;70782;50.514;30.816;2023-12-07T01:23:38;39.00;36.30;22.90
50587;PMS7003;70782;50.514;30.816;2023-12-07T01:24:44;49.20;39.80;24.70
50587;PMS7003;70782;50.514;30.816;2023-12-07T01:25:46;45.80;39.20;21.30
50587;PMS7003;70782;50.514;30.816;2023-12-07T01:26:49;47.00;40.18;21.73
50587;PMS7003;70782;50.514;30.816;2023-12-07T01:27:52;48.30;40.20;24.90
50587;PMS7003;70782;50.514;30.816;2023-12-07T01:28:54;43.10;40.50;25.10
50587;PMS7003;70782;50.514;30.816;2023-12-07T01:29:57;51.80;45.40;29.40
50587;PMS7003;70782;50.514;30.816;2023-12-07T01:31:00;52.80;45.10;26.40
50587;PMS7003;70782;50.514;30.816;2023-12-07T01:32:02;59.30;46.90;28.70
50587;PMS7003;70782;50.514;30.816;2023-12-07T01:33:05;50.64;44.18;26.91
50587;PMS7003;70782;50.514;30.816;2023-12-07T01:34:08;50.90;39.90;23.60
50587;PMS7003;70782;50.514;30.816;2023-12-07T01:35:11;39.90;34.30;19.50
50587;PMS7003;70782;50.514;30.816;2023-12-07T01:36:14;41.90;36.80;22.80
50587;PMS7003;70782;50.514;30.816;2023-12-07T01:37:17;41.70;38.40;22.10
50587;PMS7003;70782;50.514;30.816;2023-12-07T01:38:19;41.20;35.90;22.50
50587;PMS7003;70782;50.514;30.816;2023-12-07T01:39:22;39.10;35.90;23.70
50587;PMS7003;70782;50.514;30.816;2023-12-07T01:40:24;34.10;33.20;21.40
50587;PMS7003;70782;50.514;30.816;2023-12-07T01:41:27;33.90;30.90;18.90
50587;PMS7003;70782;50.514;30.816;2023-12-07T01:42:30;41.80;35.80;20.90
50587;PMS7003;70782;50.514;30.816;2023-12-07T01:43:32;40.20;35.50;19.40
50587;PMS7003;70782;50.514;30.816;2023-12-07T01:44:35;38.60;33.60;20.60
50587;PMS7003;70782;50.514;30.816;2023-12-07T01:45:38;41.70;38.60;21.70
50587;PMS7003;70782;50.514;30.816;2023-12-07T01:46:40;42.10;34.50;17.50
50587;PMS7003;70782;50.514;30.816;2023-12-07T01:47:43;38.73;28.27;14.27
50587;PMS7003;70782;50.514;30.816;2023-12-07T01:48:46;19.91;13.00;10.18
50587;PMS7003;70782;50.514;30.816;2023-12-07T01:49:50;36.20;31.80;20.30
50587;PMS7003;70782;50.514;30.816;2023-12-07T01:50:53;36.70;31.00;19.90
50587;PMS7003;70782;50.514;30.816;2023-12-07T01:51:56;34.20;31.40;19.90
50587;PMS7003;70782;50.514;30.816;2023-12-07T01:53:00;41.60;28.50;18.50
50587;PMS7003;70782;50.514;30.816;2023-12-07T01:54:04;34.30;32.00;20.00
50587;PMS7003;70782;50.514;30.816;2023-12-07T01:55:07;33.55;30.09;18.91
50587;PMS7003;70782;50.514;30.816;2023-12-07T01:56:12;27.40;26.50;15.70
50587;PMS7003;70782;50.514;30.816;2023-12-07T01:57:14;36.70;31.60;18.00
50587;PMS7003;70782;50.514;30.816;2023-12-07T01:58:17;28.20;28.00;18.10
50587;PMS7003;70782;50.514;30.816;2023-12-07T01:59:21;39.50;31.70;18.70
50587;PMS7003;70782;50.514;30.816;2023-12-07T02:00:24;35.73;31.45;20.45
50587;PMS7003;70782;50.514;30.816;2023-12-07T02:01:29;36.60;31.50;17.10
50587;PMS7003;70782;50.514;30.816;2023-12-07T02:02:31;33.40;28.40;17.40
50587;PMS7003;70782;50.514;30.816;2023-12-07T02:03:35;40.30;31.90;17.40
50587;PMS7003;70782;50.514;30.816;2023-12-07T02:04:40;37.00;31.10;21.10
50587;PMS7003;70782;50.514;30.816;2023-12-07T02:05:48;40.55;34.45;21.36
50587;PMS7003;70782;50.514;30.816;2023-12-07T02:06:51;39.50;34.70;21.00
50587;PMS7003;70782;50.514;30.816;2023-12-07T02:07:56;37.30;31.60;21.60
50587;PMS7003;70782;50.514;30.816;2023-12-07T02:08:59;40.10;34.00;21.80
50587;PMS7003;70782;50.514;30.816;2023-12-07T02:10:02;35.09;32.45;21.27
50587;PMS7003;70782;50.514;30.816;2023-12-07T02:11:05;39.20;33.00;22.00
50587;PMS7003;70782;50.514;30.816;2023-12-07T02:12:08;42.40;35.70;22.70
50587;PMS7003;70782;50.514;30.816;2023-12-07T02:13:11;43.00;36.40;22.30
50587;PMS7003;70782;50.514;30.816;2023-12-07T02:14:14;40.00;36.09;21.45
50587;PMS7003;70782;50.514;30.816;2023-12-07T02:15:16;39.50;35.10;21.40
50587;PMS7003;70782;50.514;30.816;2023-12-07T02:18:02;28.40;24.30;6.80
50587;PMS7003;70782;50.514;30.816;2023-12-07T02:20:32;42.20;37.50;23.80
50587;PMS7003;70782;50.514;30.816;2023-12-07T02:21:55;40.20;36.40;17.50
50587;PMS7003;70782;50.514;30.816;2023-12-07T02:22:58;47.80;41.70;27.50
50587;PMS7003;70782;50.514;30.816;2023-12-07T02:24:02;56.10;45.00;28.10
50587;PMS7003;70782;50.514;30.816;2023-12-07T02:25:06;44.90;41.50;26.90
50587;PMS7003;70782;50.514;30.816;2023-12-07T02:28:04;55.00;44.80;27.50
50587;PMS7003;70782;50.514;30.816;2023-12-07T02:29:07;47.10;42.30;27.10
50587;PMS7003;70782;50.514;30.816;2023-12-07T02:30:10;44.91;34.55;25.00
50587;PMS7003;70782;50.514;30.816;2023-12-07T02:31:14;47.30;38.40;22.40
50587;PMS7003;70782;50.514;30.816;2023-12-07T02:32:16;48.00;40.20;24.90
50587;PMS7003;70782;50.514;30.816;2023-12-07T02:33:19;45.50;37.40;24.10
50587;PMS7003;70782;50.514;30.816;2023-12-07T02:34:22;52.00;42.20;26.70
50587;PMS7003;70782;50.514;30.816;2023-12-07T02:35:25;46.80;41.10;25.10
50587;PMS7003;70782;50.514;30.816;2023-12-07T02:36:28;47.10;41.90;25.00
50587;PMS7003;70782;50.514;30.816;2023-12-07T02:38:47;57.50;47.00;29.00
50587;PMS7003;70782;50.514;30.816;2023-12-07T02:39:51;56.60;45.30;29.20
50587;PMS7003;70782;50.514;30.816;2023-12-07T02:40:55;60.40;48.30;30.10
50587;PMS7003;70782;50.514;30.816;2023-12-07T02:41:58;47.30;40.00;25.90
50587;PMS7003;70782;50.514;30.816;2023-12-07T02:43:01;61.55;49.45;31.00
50587;PMS7003;70782;50.514;30.816;2023-12-07T02:44:06;70.10;54.50;32.90
50587;PMS7003;70782;50.514;30.816;2023-12-07T02:45:09;65.30;53.10;33.70
50587;PMS7003;70782;50.514;30.816;2023-12-07T02:46:15;67.60;54.90;35.00
50587;PMS7003;70782;50.514;30.816;2023-12-07T02:47:18;69.09;55.55;34.82
50587;PMS7003;70782;50.514;30.816;2023-12-07T02:48:20;66.60;53.80;33.70
50587;PMS7003;70782;50.514;30.816;2023-12-07T02:49:23;64.30;53.50;34.60
50587;PMS7003;70782;50.514;30.816;2023-12-07T02:50:26;60.90;51.70;32.30
50587;PMS7003;70782;50.514;30.816;2023-12-07T02:51:29;61.80;49.90;30.70
50587;PMS7003;70782;50.514;30.816;2023-12-07T02:52:31;56.70;46.80;30.50
50587;PMS7003;70782;50.514;30.816;2023-12-07T02:53:34;55.18;46.82;30.73
50587;PMS7003;70782;50.514;30.816;2023-12-07T02:54:37;52.60;44.40;26.70
50587;PMS7003;70782;50.514;30.816;2023-12-07T02:55:39;55.80;43.70;26.30
50587;PMS7003;70782;50.514;30.816;2023-12-07T02:56:42;58.82;45.91;28.64
50587;PMS7003;70782;50.514;30.816;2023-12-07T02:57:45;49.20;40.90;25.70
50587;PMS7003;70782;50.514;30.816;2023-12-07T02:58:47;53.10;44.60;27.00
50587;PMS7003;70782;50.514;30.816;2023-12-07T02:59:50;50.91;44.36;27.45
50587;PMS7003;70782;50.514;30.816;2023-12-07T03:00:53;50.80;45.30;28.70
50587;PMS7003;70782;50.514;30.816;2023-12-07T03:01:56;48.80;40.90;24.50
50587;PMS7003;70782;50.514;30.816;2023-12-07T03:02:59;40.20;37.90;24.20
50587;PMS7003;70782;50.514;30.816;2023-12-07T03:04:01;49.90;40.90;23.00
50587;PMS7003;70782;50.514;30.816;2023-12-07T03:05:04;49.70;44.10;28.70
50587;PMS7003;70782;50.514;30.816;2023-12-07T03:06:08;51.90;44.50;25.20
50587;PMS7003;70782;50.514;30.816;2023-12-07T03:07:11;44.82;33.73;17.18
50587;PMS7003;70782;50.514;30.816;2023-12-07T03:08:14;52.40;44.50;29.10
50587;PMS7003;70782;50.514;30.816;2023-12-07T03:09:16;53.50;46.60;30.30
50587;PMS7003;70782;50.514;30.816;2023-12-07T03:10:19;48.50;44.70;26.90
50587;PMS7003;70782;50.514;30.816;2023-12-07T03:11:22;51.40;43.60;27.20
50587;PMS7003;70782;50.514;30.816;2023-12-07T03:12:25;48.30;44.10;28.30
50587;PMS7003;70782;50.514;30.816;2023-12-07T03:13:28;49.60;44.80;29.20
50587;PMS7003;70782;50.514;30.816;2023-12-07T03:14:31;54.40;47.10;25.40
50587;PMS7003;70782;50.514;30.816;2023-12-07T03:15:33;54.30;44.40;26.20
50587;PMS7003;70782;50.514;30.816;2023-12-07T03:16:36;46.30;43.40;27.00
50587;PMS7003;70782;50.514;30.816;2023-12-07T03:17:39;48.70;44.10;27.00
50587;PMS7003;70782;50.514;30.816;2023-12-07T03:18:41;48.20;41.60;24.80
50587;PMS7003;70782;50.514;30.816;2023-12-07T03:19:44;47.80;40.80;26.20
50587;PMS7003;70782;50.514;30.816;2023-12-07T03:20:47;55.36;41.09;23.36
50587;PMS7003;70782;50.514;30.816;2023-12-07T03:21:50;54.18;42.18;26.09
50587;PMS7003;70782;50.514;30.816;2023-12-07T03:22:53;45.90;41.60;23.90
50587;PMS7003;70782;50.514;30.816;2023-12-07T03:23:55;44.30;39.60;24.00
50587;PMS7003;70782;50.514;30.816;2023-12-07T03:24:58;37.70;33.40;21.30
50587;PMS7003;70782;50.514;30.816;2023-12-07T03:26:00;31.50;26.90;13.80
50587;PMS7003;70782;50.514;30.816;2023-12-07T03:27:03;35.80;31.80;18.50
50587;PMS7003;70782;50.514;30.816;2023-12-07T03:28:06;26.80;24.00;12.00
50587;PMS7003;70782;50.514;30.816;2023-12-07T03:29:09;38.40;34.20;20.50
50587;PMS7003;70782;50.514;30.816;2023-12-07T03:30:13;40.70;34.40;20.50
50587;PMS7003;70782;50.514;30.816;2023-12-07T03:31:15;34.40;32.20;20.80
50587;PMS7003;70782;50.514;30.816;2023-12-07T03:32:18;40.80;36.10;23.60
50587;PMS7003;70782;50.514;30.816;2023-12-07T03:33:21;36.50;32.60;20.40
50587;PMS7003;70782;50.514;30.816;2023-12-07T03:34:23;38.10;33.40;21.90
50587;PMS7003;70782;50.514;30.816;2023-12-07T03:35:26;39.00;32.40;19.40
50587;PMS7003;70782;50.514;30.816;2023-12-07T03:36:29;33.50;30.70;19.20
50587;PMS7003;70782;50.514;30.816;2023-12-07T03:37:33;38.10;29.00;19.10
50587;PMS7003;70782;50.514;30.816;2023-12-07T03:38:36;32.30;30.10;18.50
50587;PMS7003;70782;50.514;30.816;2023-12-07T03:39:38;30.90;29.00;19.30
50587;PMS7003;70782;50.514;30.816;2023-12-07T03:40:41;30.80;28.60;17.20
50587;PMS7003;70782;50.514;30.816;2023-12-07T03:41:43;34.90;29.80;18.00
50587;PMS7003;70782;50.514;30.816;2023-12-07T03:42:46;33.82;28.00;17.91
50587;PMS7003;70782;50.514;30.816;2023-12-07T03:43:51;31.40;26.30;17.40
50587;PMS7003;70782;50.514;30.816;2023-12-07T03:44:53;38.30;30.70;19.30
50587;PMS7003;70782;50.514;30.816;2023-12-07T03:45:56;35.40;29.90;19.10
50587;PMS7003;70782;50.514;30.816;2023-12-07T03:46:59;28.30;25.90;15.20
50587;PMS7003;70782;50.514;30.816;2023-12-07T03:48:01;34.50;29.40;17.70
50587;PMS7003;70782;50.514;30.816;2023-12-07T03:49:04;30.90;26.60;15.70
50587;PMS7003;70782;50.514;30.816;2023-12-07T03:50:08;29.20;24.70;16.90
50587;PMS7003;70782;50.514;30.816;2023-12-07T03:51:12;29.50;24.80;15.70
50587;PMS7003;70782;50.514;30.816;2023-12-07T03:52:15;30.20;26.20;15.90
50587;PMS7003;70782;50.514;30.816;2023-12-07T03:53:18;35.00;25.20;16.30
50587;PMS7003;70782;50.514;30.816;2023-12-07T03:54:20;29.90;26.80;16.60
50587;PMS7003;70782;50.514;30.816;2023-12-07T03:55:23;20.90;17.60;10.20
50587;PMS7003;70782;50.514;30.816;2023-12-07T03:56:26;33.60;29.10;18.10
50587;PMS7003;70782;50.514;30.816;2023-12-07T03:57:29;29.90;25.40;16.40
50587;PMS7003;70782;50.514;30.816;2023-12-07T03:58:32;31.90;29.80;18.20
50587;PMS7003;70782;50.514;30.816;2023-12-07T04:00:45;38.80;32.10;18.30
50587;PMS7003;70782;50.514;30.816;2023-12-07T04:01:47;34.60;34.60;19.30
50587;PMS7003;70782;50.514;30.816;2023-12-07T04:02:50;32.30;29.20;16.80
50587;PMS7003;70782;50.514;30.816;2023-12-07T04:03:53;23.36;18.91;11.00
50587;PMS7003;70782;50.514;30.816;2023-12-07T04:04:57;27.40;25.70;16.00
50587;PMS7003;70782;50.514;30.816;2023-12-07T04:05:59;34.40;29.90;17.50
50587;PMS7003;70782;50.514;30.816;2023-12-07T04:07:02;30.20;28.50;17.00
50587;PMS7003;70782;50.514;30.816;2023-12-07T04:08:05;35.45;31.55;18.55
50587;PMS7003;70782;50.514;30.816;2023-12-07T04:09:08;34.70;30.00;18.80
50587;PMS7003;70782;50.514;30.816;2023-12-07T04:10:11;37.82;33.09;20.45
50587;PMS7003;70782;50.514;30.816;2023-12-07T04:11:14;45.82;39.73;21.73
50587;PMS7003;70782;50.514;30.816;2023-12-07T04:12:17;39.73;32.55;17.91
50587;PMS7003;70782;50.514;30.816;2023-12-07T04:13:19;32.30;30.00;18.60
50587;PMS7003;70782;50.514;30.816;2023-12-07T04:14:22;29.20;24.70;15.20
50587;PMS7003;70782;50.514;30.816;2023-12-07T04:15:24;34.30;29.50;17.90
50587;PMS7003;70782;50.514;30.816;2023-12-07T04:16:27;38.80;36.40;22.00
50587;PMS7003;70782;50.514;30.816;2023-12-07T04:17:30;38.80;29.90;18.80
50587;PMS7003;70782;50.514;30.816;2023-12-07T04:18:32;34.50;29.10;18.80
50587;PMS7003;70782;50.514;30.816;2023-12-07T04:19:35;30.90;26.80;17.10
50587;PMS7003;70782;50.514;30.816;2023-12-07T04:20:37;32.90;26.80;15.30
50587;PMS7003;70782;50.514;30.816;2023-12-07T04:21:40;31.40;29.90;17.20
50587;PMS7003;70782;50.514;30.816;2023-12-07T04:22:43;32.70;28.20;18.40
50587;PMS7003;70782;50.514;30.816;2023-12-07T04:23:46;35.91;29.45;18.27
50587;PMS7003;70782;50.514;30.816;2023-12-07T04:24:48;32.00;30.80;18.40
50587;PMS7003;70782;50.514;30.816;2023-12-07T04:25:51;33.20;28.80;19.40
50587;PMS7003;70782;50.514;30.816;2023-12-07T04:26:54;34.60;30.00;17.90
50587;PMS7003;70782;50.514;30.816;2023-12-07T04:27:57;22.60;20.40;16.50
50587;PMS7003;70782;50.514;30.816;2023-12-07T04:29:00;33.50;26.20;16.60
50587;PMS7003;70782;50.514;30.816;2023-12-07T04:30:03;25.91;24.36;15.45
50587;PMS7003;70782;50.514;30.816;2023-12-07T04:31:06;29.00;26.70;18.10
50587;PMS7003;70782;50.514;30.816;2023-12-07T04:32:09;28.00;24.70;17.00
50587;PMS7003;70782;50.514;30.816;2023-12-07T04:33:11;26.10;23.60;14.80
50587;PMS7003;70782;50.514;30.816;2023-12-07T04:34:14;28.30;24.30;15.00
50587;PMS7003;70782;50.514;30.816;2023-12-07T04:35:17;30.90;25.90;15.70
50587;PMS7003;70782;50.514;30.816;2023-12-07T04:36:19;31.10;25.20;16.90
50587;PMS7003;70782;50.514;30.816;2023-12-07T04:37:22;26.20;24.40;14.50
50587;PMS7003;70782;50.514;30.816;2023-12-07T04:38:25;26.40;25.00;16.30
50587;PMS7003;70782;50.514;30.816;2023-12-07T04:39:27;16.90;13.10;10.30
50587;PMS7003;70782;50.514;30.816;2023-12-07T04:40:30;28.09;24.91;15.27
50587;PMS7003;70782;50.514;30.816;2023-12-07T04:41:33;32.10;27.00;18.30
50587;PMS7003;70782;50.514;30.816;2023-12-07T04:42:36;28.60;25.60;15.40
50587;PMS7003;70782;50.514;30.816;2023-12-07T04:43:38;26.30;23.90;15.30
50587;PMS7003;70782;50.514;30.816;2023-12-07T04:44:41;31.80;26.60;16.80
50587;PMS7003;70782;50.514;30.816;2023-12-07T04:45:44;33.64;26.82;16.00
50587;PMS7003;70782;50.514;30.816;2023-12-07T04:46:46;36.10;29.70;16.80
50587;PMS7003;70782;50.514;30.816;2023-12-07T04:47:49;38.80;36.40;21.10
50587;PMS7003;70782;50.514;30.816;2023-12-07T04:48:51;29.20;25.90;20.00
50587;PMS7003;70782;50.514;30.816;2023-12-07T04:49:54;37.90;36.10;22.70
50587;PMS7003;70782;50.514;30.816;2023-12-07T04:50:57;61.82;50.18;30.64
50587;PMS7003;70782;50.514;30.816;2023-12-07T04:52:00;85.20;65.90;39.80
50587;PMS7003;70782;50.514;30.816;2023-12-07T04:53:02;82.70;66.50;41.00
50587;PMS7003;70782;50.514;30.816;2023-12-07T04:54:05;69.90;54.10;34.70
50587;PMS7003;70782;50.514;30.816;2023-12-07T04:55:09;67.20;52.80;33.80
50587;PMS7003;70782;50.514;30.816;2023-12-07T04:56:12;53.27;45.64;29.73
50587;PMS7003;70782;50.514;30.816;2023-12-07T04:57:14;45.60;39.90;25.40
50587;PMS7003;70782;50.514;30.816;2023-12-07T04:58:17;36.90;31.20;21.30
50587;PMS7003;70782;50.514;30.816;2023-12-07T04:59:20;38.00;33.50;20.60
50587;PMS7003;70782;50.514;30.816;2023-12-07T05:00:22;40.20;34.40;20.40
50587;PMS7003;70782;50.514;30.816;2023-12-07T05:01:25;38.20;33.40;20.20
50587;PMS7003;70782;50.514;30.816;2023-12-07T05:02:28;35.20;32.40;21.30
50587;PMS7003;70782;50.514;30.816;2023-12-07T05:03:31;29.50;23.90;11.60
50587;PMS7003;70782;50.514;30.816;2023-12-07T05:04:34;38.80;34.70;22.10
50587;PMS7003;70782;50.514;30.816;2023-12-07T05:05:36;33.60;29.30;15.90
50587;PMS7003;70782;50.514;30.816;2023-12-07T05:06:39;43.30;36.80;21.50
50587;PMS7003;70782;50.514;30.816;2023-12-07T05:07:42;56.80;44.80;24.60
50587;PMS7003;70782;50.514;30.816;2023-12-07T05:08:44;38.70;36.60;23.90
50587;PMS7003;70782;50.514;30.816;2023-12-07T05:09:47;49.10;40.30;21.50
50587;PMS7003;70782;50.514;30.816;2023-12-07T05:10:50;45.60;40.40;25.50
50587;PMS7003;70782;50.514;30.816;2023-12-07T05:11:52;46.20;41.10;23.50
50587;PMS7003;70782;50.514;30.816;2023-12-07T05:12:55;44.00;36.40;22.60
50587;PMS7003;70782;50.514;30.816;2023-12-07T05:13:57;32.20;28.90;18.80
50587;PMS7003;70782;50.514;30.816;2023-12-07T05:15:00;27.18;24.64;15.82
50587;PMS7003;70782;50.514;30.816;2023-12-07T05:16:04;31.00;25.82;16.45
50587;PMS7003;70782;50.514;30.816;2023-12-07T05:17:06;27.90;26.30;18.20
50587;PMS7003;70782;50.514;30.816;2023-12-07T05:18:09;31.10;26.90;15.70
50587;PMS7003;70782;50.514;30.816;2023-12-07T05:19:12;33.60;30.30;18.70
50587;PMS7003;70782;50.514;30.816;2023-12-07T05:20:15;40.60;34.30;20.50
50587;PMS7003;70782;50.514;30.816;2023-12-07T05:21:18;36.90;35.10;23.50
50587;PMS7003;70782;50.514;30.816;2023-12-07T05:22:20;49.00;41.70;25.90
50587;PMS7003;70782;50.514;30.816;2023-12-07T05:23:23;57.90;43.90;27.40
50587;PMS7003;70782;50.514;30.816;2023-12-07T05:24:25;58.80;45.70;27.10
50587;PMS7003;70782;50.514;30.816;2023-12-07T05:25:28;61.10;48.10;28.50
50587;PMS7003;70782;50.514;30.816;2023-12-07T05:26:31;58.30;45.90;26.80
50587;PMS7003;70782;50.514;30.816;2023-12-07T05:27:33;44.90;40.30;23.90
50587;PMS7003;70782;50.514;30.816;2023-12-07T05:28:36;41.40;35.20;22.00
50587;PMS7003;70782;50.514;30.816;2023-12-07T05:29:39;35.60;28.20;16.30
50587;PMS7003;70782;50.514;30.816;2023-12-07T05:30:42;35.80;31.60;19.20
50587;PMS7003;70782;50.514;30.816;2023-12-07T05:31:48;29.80;25.10;15.50
50587;PMS7003;70782;50.514;30.816;2023-12-07T05:32:51;29.90;25.20;15.20
50587;PMS7003;70782;50.514;30.816;2023-12-07T05:33:54;30.73;25.82;15.45
50587;PMS7003;70782;50.514;30.816;2023-12-07T05:34:58;31.50;28.40;16.90
50587;PMS7003;70782;50.514;30.816;2023-12-07T05:36:00;27.00;23.20;14.00
50587;PMS7003;70782;50.514;30.816;2023-12-07T05:37:03;26.60;24.40;14.50
50587;PMS7003;70782;50.514;30.816;2023-12-07T05:38:06;36.00;25.09;15.82
50587;PMS7003;70782;50.514;30.816;2023-12-07T05:39:08;27.70;24.10;15.80
50587;PMS7003;70782;50.514;30.816;2023-12-07T05:40:12;36.60;31.30;18.30
50587;PMS7003;70782;50.514;30.816;2023-12-07T05:41:14;31.50;24.50;14.60
50587;PMS7003;70782;50.514;30.816;2023-12-07T05:42:17;31.40;29.80;19.80
50587;PMS7003;70782;50.514;30.816;2023-12-07T05:43:19;25.50;21.10;14.20
50587;PMS7003;70782;50.514;30.816;2023-12-07T05:44:22;27.90;23.70;14.90
50587;PMS7003;70782;50.514;30.816;2023-12-07T05:45:24;36.00;30.00;17.50
50587;PMS7003;70782;50.514;30.816;2023-12-07T05:46:27;28.20;24.10;15.20
50587;PMS7003;70782;50.514;30.816;2023-12-07T05:47:30;30.70;26.60;16.80
50587;PMS7003;70782;50.514;30.816;2023-12-07T05:48:33;35.20;31.80;17.90
50587;PMS7003;70782;50.514;30.816;2023-12-07T05:49:36;30.60;23.20;14.80
50587;PMS7003;70782;50.514;30.816;2023-12-07T05:50:38;20.70;17.90;14.80
50587;PMS7003;70782;50.514;30.816;2023-12-07T05:51:41;26.70;21.50;11.50
50587;PMS7003;70782;50.514;30.816;2023-12-07T05:52:44;29.90;23.50;13.60
50587;PMS7003;70782;50.514;30.816;2023-12-07T05:53:47;15.82;12.73;9.91
50587;PMS7003;70782;50.514;30.816;2023-12-07T05:54:49;26.90;24.40;15.40